Time;durP1;ratioP1;P1;durP2;ratioP2;P2;SDS_P1;SDS_P2;PMS_P1;PMS_P2;Temp;Humidity;BMP_temperature;BMP_pressure;BME280_temperature;BME280_humidity;BME280_pressure;Samples;Min_cycle;Max_cycle;Signal;HPM_P1;HPM_P2
2023/10/31 00:02:54;;;;;;;4.72;3.20;;;;;12.80;94626.00;;;;8334501;28;20694;-69
2023/10/31 00:06:57;;;;;;;3.25;2.90;;;;;12.80;94635.00;;;;8335769;28;20205;-69
2023/10/31 00:11:02;;;;;;;2.83;2.60;;;;;12.80;94633.00;;;;8333712;28;20232;-69
2023/10/31 00:15:06;;;;;;;6.47;2.55;;;;;12.80;94633.00;;;;8333915;28;20221;-70
2023/10/31 00:19:09;;;;;;;2.65;2.25;;;;;12.70;94635.00;;;;8333970;28;20196;-70
2023/10/31 00:23:12;;;;;;;2.55;2.30;;;;;12.70;94637.00;;;;8333549;28;20228;-70
2023/10/31 00:27:16;;;;;;;2.45;2.22;;;;;12.70;94639.00;;;;8333603;28;20306;-70
2023/10/31 00:31:20;;;;;;;2.83;2.22;;;;;12.70;94645.00;;;;8332583;28;20280;-71
2023/10/31 00:35:23;;;;;;;1.63;1.52;;;;;12.70;94649.00;;;;8333374;28;20217;-70
2023/10/31 00:39:26;;;;;;;1.88;1.77;;;;;12.70;94654.00;;;;8332849;28;20233;-72
2023/10/31 00:43:31;;;;;;;2.95;1.83;;;;;12.70;94654.00;;;;8333034;28;20198;-72
2023/10/31 00:47:34;;;;;;;2.13;2.03;;;;;12.70;94659.00;;;;8332853;28;20205;-72
2023/10/31 00:51:37;;;;;;;1.77;1.70;;;;;12.70;94664.00;;;;8332689;28;20192;-72
2023/10/31 00:55:40;;;;;;;1.80;1.70;;;;;12.70;94658.00;;;;8332276;28;20321;-73
2023/10/31 00:59:45;;;;;;;3.05;2.25;;;;;12.70;94661.00;;;;8332521;28;20190;-73
2023/10/31 01:03:48;;;;;;;3.42;2.10;;;;;12.70;94664.00;;;;8332599;28;20733;-73
2023/10/31 01:07:51;;;;;;;1.95;1.83;;;;;12.80;94661.00;;;;8332437;28;20200;-72
2023/10/31 01:11:55;;;;;;;2.22;1.75;;;;;12.70;94665.00;;;;8332804;28;20632;-72
2023/10/31 01:15:59;;;;;;;2.72;1.90;;;;;12.70;94680.00;;;;8331905;28;20627;-71
2023/10/31 01:20:03;;;;;;;1.70;1.60;;;;;12.70;94685.00;;;;8332507;28;20262;-71
2023/10/31 01:24:06;;;;;;;1.92;1.63;;;;;12.70;94685.00;;;;8329845;28;20240;-71
2023/10/31 01:28:10;;;;;;;1.80;1.70;;;;;12.70;94677.00;;;;8331505;28;20284;-70
2023/10/31 01:32:14;;;;;;;1.83;1.73;;;;;12.70;94690.00;;;;8331679;28;20320;-70
2023/10/31 01:36:26;;;;;;;2.53;1.70;;;;;12.70;94683.00;;;;8332279;28;20539;-70
2023/10/31 01:40:29;;;;;;;1.35;1.33;;;;;12.60;94689.00;;;;8331396;28;20204;-70
2023/10/31 01:44:32;;;;;;;2.80;1.70;;;;;12.60;94688.00;;;;8330413;28;20233;-69
2023/10/31 01:48:37;;;;;;;1.98;1.77;;;;;12.60;94680.00;;;;8331206;28;20241;-69
2023/10/31 01:52:40;;;;;;;2.47;1.80;;;;;12.50;94690.00;;;;8330974;28;20199;-68
2023/10/31 01:56:44;;;;;;;3.22;1.50;;;;;12.50;94685.00;;;;8330430;28;20221;-68
2023/10/31 02:00:47;;;;;;;2.17;1.92;;;;;12.50;94695.00;;;;8330715;28;20200;-69
2023/10/31 02:04:52;;;;;;;1.55;1.45;;;;;12.50;94676.00;;;;8331354;28;20224;-69
2023/10/31 02:08:55;;;;;;;2.92;2.35;;;;;12.50;94664.00;;;;8331498;28;20205;-69
2023/10/31 02:12:59;;;;;;;2.33;1.58;;;;;12.50;94682.00;;;;8330537;28;20196;-69
2023/10/31 02:17:02;;;;;;;1.67;1.60;;;;;12.50;94698.00;;;;8330733;28;20263;-69
2023/10/31 02:21:06;;;;;;;1.67;1.60;;;;;12.50;94696.00;;;;8331159;28;20228;-68
2023/10/31 02:25:19;;;;;;;1.70;1.60;;;;;12.40;94708.00;;;;8330455;28;20273;-69
2023/10/31 02:29:22;;;;;;;3.13;1.55;;;;;12.40;94714.00;;;;8330813;28;20185;-69
2023/10/31 02:33:26;;;;;;;1.88;1.73;;;;;12.40;94712.00;;;;8330707;28;20274;-68
2023/10/31 02:37:29;;;;;;;2.20;1.83;;;;;12.40;94718.00;;;;8331102;28;20284;-69
2023/10/31 02:41:34;;;;;;;1.65;1.55;;;;;12.40;94726.00;;;;8331100;28;20208;-69
2023/10/31 02:45:37;;;;;;;2.10;2.00;;;;;12.40;94737.00;;;;8330174;28;20240;-69
2023/10/31 02:49:40;;;;;;;1.70;1.60;;;;;12.40;94743.00;;;;8331061;28;20233;-69
2023/10/31 02:53:43;;;;;;;2.00;1.80;;;;;12.40;94742.00;;;;8330640;28;20220;-69
2023/10/31 02:57:48;;;;;;;2.50;2.30;;;;;12.30;94740.00;;;;8336274;28;20231;-69
2023/10/31 03:01:51;;;;;;;1.73;1.63;;;;;12.30;94734.00;;;;8349610;23;20237;-69
2023/10/31 03:05:54;;;;;;;1.38;1.38;;;;;12.30;94727.00;;;;8283846;28;20216;-68
2023/10/31 03:09:57;;;;;;;1.70;1.60;;;;;12.20;94731.00;;;;8284759;28;20233;-69
2023/10/31 03:14:02;;;;;;;1.52;1.42;;;;;12.20;94738.00;;;;8291885;28;20354;-69
2023/10/31 03:18:06;;;;;;;3.33;1.55;;;;;12.10;94748.00;;;;8278861;28;20572;-68
2023/10/31 03:22:09;;;;;;;1.20;1.15;;;;;12.10;94760.00;;;;8287000;28;20722;-69
2023/10/31 03:26:12;;;;;;;1.52;1.50;;;;;12.10;94768.00;;;;8283770;28;20243;-69
2023/10/31 03:30:17;;;;;;;1.65;1.50;;;;;12.10;94768.00;;;;8286094;28;20205;-69
2023/10/31 03:34:20;;;;;;;1.50;1.50;;;;;12.10;94756.00;;;;8285519;28;20317;-69
2023/10/31 03:38:23;;;;;;;1.50;1.40;;;;;12.10;94757.00;;;;8284064;28;20295;-69
2023/10/31 03:42:26;;;;;;;1.27;1.27;;;;;12.10;94773.00;;;;8284350;28;20241;-69
2023/10/31 03:46:30;;;;;;;1.63;1.52;;;;;12.10;94773.00;;;;8287314;28;20697;-68
2023/10/31 03:50:33;;;;;;;6.93;1.48;;;;;12.10;94781.00;;;;8284549;28;20233;-71
2023/10/31 03:54:36;;;;;;;4.43;1.60;;;;;12.10;94788.00;;;;8285849;28;20311;-71
2023/10/31 03:58:42;;;;;;;1.92;1.67;;;;;12.00;94791.00;;;;8285573;28;20201;-70
2023/10/31 04:02:46;;;;;;;1.20;1.20;;;;;11.90;94797.00;;;;8285216;28;20329;-70
2023/10/31 04:06:50;;;;;;;1.23;1.23;;;;;11.80;94809.00;;;;8283268;28;20211;-71
2023/10/31 04:10:53;;;;;;;1.10;1.10;;;;;11.70;94803.00;;;;8279662;28;20285;-71
2023/10/31 04:14:56;;;;;;;1.30;1.17;;;;;11.70;94800.00;;;;8281833;28;20236;-70
2023/10/31 04:19:00;;;;;;;1.20;1.20;;;;;11.60;94795.00;;;;8280857;28;20239;-69
2023/10/31 04:23:05;;;;;;;1.38;1.27;;;;;11.50;94793.00;;;;8282314;28;20562;-69
2023/10/31 04:27:08;;;;;;;1.20;1.10;;;;;11.40;94805.00;;;;8280967;28;20358;-69
2023/10/31 04:31:11;;;;;;;1.13;1.10;;;;;11.30;94809.00;;;;8278340;28;20202;-70
2023/10/31 04:35:16;;;;;;;1.25;1.20;;;;;11.20;94808.00;;;;8283642;28;20234;-69
2023/10/31 04:39:20;;;;;;;1.00;1.00;;;;;11.10;94844.00;;;;8277147;28;20599;-69
2023/10/31 04:43:23;;;;;;;1.40;1.30;;;;;11.10;94835.00;;;;8278867;28;20198;-69
2023/10/31 04:47:26;;;;;;;1.35;1.25;;;;;11.00;94817.00;;;;8283873;28;20258;-70
2023/10/31 04:51:34;;;;;;;1.08;1.08;;;;;10.90;94808.00;;;;8277225;28;20201;-69
2023/10/31 04:55:37;;;;;;;2.10;1.10;;;;;10.90;94816.00;;;;8285552;28;20226;-69
2023/10/31 04:59:41;;;;;;;2.17;1.35;;;;;10.80;94819.00;;;;8276130;28;20283;-69
2023/10/31 05:03:44;;;;;;;1.65;1.38;;;;;10.80;94826.00;;;;8279270;28;20898;-69
2023/10/31 05:07:50;;;;;;;1.70;1.50;;;;;10.80;94826.00;;;;8282402;28;20194;-70
2023/10/31 05:11:53;;;;;;;1.63;1.52;;;;;10.70;94823.00;;;;8287559;28;20228;-70
2023/10/31 05:15:56;;;;;;;1.95;1.52;;;;;10.70;94829.00;;;;8282524;28;20320;-69
2023/10/31 05:20:00;;;;;;;2.88;1.63;;;;;10.70;94821.00;;;;8282121;28;20232;-70
2023/10/31 05:24:05;;;;;;;2.45;1.70;;;;;10.70;94824.00;;;;8279588;28;20250;-70
2023/10/31 05:28:08;;;;;;;1.38;1.30;;;;;10.70;94833.00;;;;8280341;28;20200;-70
2023/10/31 05:32:11;;;;;;;2.10;1.60;;;;;10.60;94835.00;;;;8281643;28;20570;-70
2023/10/31 05:36:19;;;;;;;4.03;1.75;;;;;10.60;94858.00;;;;8276638;28;20309;-69
2023/10/31 05:40:26;;;;;;;1.83;1.60;;;;;10.50;94877.00;;;;8281623;28;20287;-70
2023/10/31 05:44:29;;;;;;;3.17;1.40;;;;;10.50;94885.00;;;;8282600;28;20612;-69
2023/10/31 05:48:32;;;;;;;1.95;1.55;;;;;10.50;94900.00;;;;8281417;28;20666;-69
2023/10/31 05:52:36;;;;;;;1.27;1.27;;;;;10.50;94904.00;;;;8278884;28;20280;-69
2023/10/31 05:56:40;;;;;;;1.50;1.40;;;;;10.50;94913.00;;;;8280301;28;20226;-69
2023/10/31 06:00:44;;;;;;;2.58;1.55;;;;;10.40;94909.00;;;;8279661;28;20203;-70
2023/10/31 06:04:47;;;;;;;1.55;1.45;;;;;10.40;94920.00;;;;8278561;28;20219;-70
2023/10/31 06:08:50;;;;;;;2.15;1.45;;;;;10.40;94940.00;;;;8277234;28;20203;-70
2023/10/31 06:12:54;;;;;;;1.40;1.30;;;;;10.40;94947.00;;;;8281457;28;20296;-69
2023/10/31 06:16:59;;;;;;;1.40;1.30;;;;;10.40;94946.00;;;;8277791;28;20230;-70
2023/10/31 06:21:02;;;;;;;1.85;1.25;;;;;10.40;94969.00;;;;8274528;28;20258;-70
2023/10/31 06:25:06;;;;;;;2.65;1.40;;;;;10.40;94967.00;;;;8277094;28;20895;-71
2023/10/31 06:29:10;;;;;;;1.85;1.20;;;;;10.40;94981.00;;;;8275737;28;20242;-71
2023/10/31 06:33:34;;;;;;;1.77;1.15;;;;;10.40;94985.00;;;;8285202;28;20268;-71
2023/10/31 06:37:37;;;;;;;1.17;1.17;;;;;10.40;94997.00;;;;8285877;28;20257;-71
2023/10/31 06:41:40;;;;;;;1.38;1.30;;;;;10.40;95006.00;;;;8281562;28;20226;-71
2023/10/31 06:45:44;;;;;;;2.70;1.25;;;;;10.50;95016.00;;;;8287709;28;20195;-72
2023/10/31 06:49:47;;;;;;;2.65;1.48;;;;;10.50;95037.00;;;;8286605;28;20636;-70
2023/10/31 06:53:51;;;;;;;1.33;1.13;;;;;10.50;95039.00;;;;8282846;28;20197;-72
2023/10/31 06:57:54;;;;;;;1.30;1.20;;;;;10.50;95041.00;;;;8286859;28;20228;-72
2023/10/31 07:01:58;;;;;;;2.53;1.40;;;;;10.60;95045.00;;;;8281469;28;20234;-72
2023/10/31 07:06:02;;;;;;;1.25;1.25;;;;;10.60;95051.00;;;;8287843;28;20633;-71
2023/10/31 07:10:06;;;;;;;4.43;1.20;;;;;10.70;95061.00;;;;8291080;28;20202;-72
2023/10/31 07:14:09;;;;;;;1.20;1.20;;;;;10.80;95057.00;;;;8281739;28;20305;-72
2023/10/31 07:18:14;;;;;;;1.42;1.35;;;;;10.90;95060.00;;;;8284534;28;20224;-73
2023/10/31 07:22:17;;;;;;;1.48;1.38;;;;;11.00;95063.00;;;;8287039;28;20307;-70
2023/10/31 07:26:20;;;;;;;2.28;1.33;;;;;11.10;95059.00;;;;8286088;28;20234;-70
2023/10/31 07:30:23;;;;;;;5.10;1.50;;;;;11.20;95053.00;;;;8282402;28;20201;-72
2023/10/31 07:34:29;;;;;;;3.90;1.45;;;;;11.30;95051.00;;;;8284481;28;20627;-71
2023/10/31 07:38:33;;;;;;;3.97;1.33;;;;;11.30;95042.00;;;;8282864;28;20725;-73
2023/10/31 07:42:36;;;;;;;5.10;1.27;;;;;11.40;95050.00;;;;8278570;28;20200;-71
2023/10/31 07:46:39;;;;;;;1.90;1.60;;;;;11.40;95050.00;;;;8283670;28;20198;-72
2023/10/31 07:50:44;;;;;;;1.20;1.20;;;;;11.50;95059.00;;;;8278969;28;20205;-71
2023/10/31 07:54:47;;;;;;;1.05;1.05;;;;;11.50;95046.00;;;;8279559;28;20629;-71
2023/10/31 07:58:50;;;;;;;1.85;1.30;;;;;11.50;95043.00;;;;8281605;28;20236;-71
2023/10/31 08:02:53;;;;;;;2.35;1.20;;;;;11.40;95050.00;;;;8282400;28;20247;-72
2023/10/31 08:07:00;;;;;;;2.05;1.30;;;;;11.40;95053.00;;;;8281501;28;20194;-72
2023/10/31 08:11:04;;;;;;;1.63;1.33;;;;;11.40;95046.00;;;;8278172;28;20241;-70
2023/10/31 08:15:08;;;;;;;1.35;1.27;;;;;11.50;95047.00;;;;8280497;28;20197;-72
2023/10/31 08:19:12;;;;;;;3.42;1.30;;;;;11.50;95046.00;;;;8282350;28;20461;-71
2023/10/31 08:23:17;;;;;;;1.30;1.20;;;;;11.60;95047.00;;;;8288626;28;20194;-72
2023/10/31 08:27:21;;;;;;;2.30;1.33;;;;;11.70;95059.00;;;;8278115;28;20204;-72
2023/10/31 08:31:24;;;;;;;1.65;1.15;;;;;11.80;95080.00;;;;8275549;28;20308;-72
2023/10/31 08:35:28;;;;;;;1.50;0.90;;;;;11.90;95060.00;;;;8271066;28;20241;-72
2023/10/31 08:39:33;;;;;;;1.60;1.13;;;;;12.00;95060.00;;;;8273020;28;20667;-73
2023/10/31 08:43:36;;;;;;;1.00;1.00;;;;;12.00;95066.00;;;;8272602;28;20292;-71
2023/10/31 08:47:39;;;;;;;1.40;1.08;;;;;12.10;95070.00;;;;8266914;28;20200;-70
2023/10/31 08:51:42;;;;;;;1.17;1.08;;;;;12.30;95065.00;;;;8275241;28;20234;-72
2023/10/31 08:55:47;;;;;;;2.50;1.00;;;;;12.40;95068.00;;;;8274716;28;20270;-72
2023/10/31 08:59:50;;;;;;;1.73;1.13;;;;;12.40;95081.00;;;;8275014;28;20620;-72
2023/10/31 09:03:53;;;;;;;2.63;1.48;;;;;12.40;95096.00;;;;8277922;28;20331;-73
2023/10/31 09:07:57;;;;;;;1.00;1.00;;;;;12.40;95118.00;;;;8281962;28;20201;-72
2023/10/31 09:12:02;;;;;;;1.60;1.50;;;;;12.40;95136.00;;;;8279639;28;20229;-72
2023/10/31 09:16:05;;;;;;;1.30;1.00;;;;;12.50;95140.00;;;;8277482;28;20924;-72
2023/10/31 09:20:11;;;;;;;1.00;1.00;;;;;12.60;95151.00;;;;8282851;28;20899;-72
2023/10/31 09:24:14;;;;;;;1.10;1.10;;;;;12.50;95157.00;;;;8282736;28;20242;-71
2023/10/31 09:28:19;;;;;;;1.73;1.10;;;;;12.50;95155.00;;;;8283593;28;20563;-71
2023/10/31 09:32:22;;;;;;;0.90;0.90;;;;;12.40;95166.00;;;;8282222;28;20296;-71
2023/10/31 09:36:25;;;;;;;1.08;1.08;;;;;12.30;95187.00;;;;8279887;28;20225;-72
2023/10/31 09:40:28;;;;;;;1.00;1.00;;;;;12.30;95186.00;;;;8275110;28;20209;-71
2023/10/31 09:44:33;;;;;;;3.42;1.13;;;;;12.30;95188.00;;;;8279186;28;20681;-70
2023/10/31 09:48:37;;;;;;;1.58;1.30;;;;;12.40;95191.00;;;;8277861;28;20228;-71
2023/10/31 09:52:40;;;;;;;1.30;1.30;;;;;12.50;95186.00;;;;8276406;28;20194;-70
2023/10/31 09:56:43;;;;;;;2.53;1.15;;;;;12.60;95169.00;;;;8282504;28;20283;-70
2023/10/31 10:00:48;;;;;;;2.03;1.10;;;;;12.60;95163.00;;;;8284819;28;20209;-69
2023/10/31 10:04:51;;;;;;;4.68;1.13;;;;;12.50;95162.00;;;;8291674;28;20285;-69
2023/10/31 10:08:58;;;;;;;0.80;0.80;;;;;12.40;95148.00;;;;8309343;28;20280;-71
2023/10/31 10:13:04;;;;;;;1.45;1.25;;;;;12.20;95133.00;;;;8309644;28;20193;-72
2023/10/31 10:17:17;;;;;;;3.03;0.90;;;;;12.00;95137.00;;;;8310360;28;20217;-72
2023/10/31 10:21:20;;;;;;;1.00;1.00;;;;;11.90;95145.00;;;;8309105;28;20190;-72
2023/10/31 10:25:23;;;;;;;2.80;1.00;;;;;11.80;95152.00;;;;8309422;28;20232;-72
2023/10/31 10:29:28;;;;;;;1.00;1.00;;;;;11.80;95158.00;;;;8308041;28;20317;-72
2023/10/31 10:33:34;;;;;;;1.48;1.00;;;;;11.80;95156.00;;;;8309982;28;20201;-72
2023/10/31 10:37:39;;;;;;;1.08;1.08;;;;;12.00;95167.00;;;;8309149;28;20319;-72
2023/10/31 10:41:44;;;;;;;1.00;1.00;;;;;12.10;95180.00;;;;8309631;28;20183;-72
2023/10/31 10:45:53;;;;;;;7.38;1.40;;;;;12.20;95183.00;;;;8307726;28;20240;-72
2023/10/31 10:50:01;;;;;;;1.65;1.55;;;;;12.20;95176.00;;;;8308219;28;20201;-72
2023/10/31 10:54:10;;;;;;;0.77;0.77;;;;;12.10;95192.00;;;;8308256;28;20622;-73
2023/10/31 10:58:22;;;;;;;1.98;1.10;;;;;11.90;95205.00;;;;8308628;28;20308;-72
2023/10/31 11:02:27;;;;;;;3.03;1.00;;;;;11.50;95207.00;;;;8309472;28;20261;-73
2023/10/31 11:06:34;;;;;;;2.03;0.98;;;;;11.10;95203.00;;;;8309316;28;20598;-71
2023/10/31 11:10:39;;;;;;;0.60;0.60;;;;;10.90;95210.00;;;;8311294;28;20584;-73
2023/10/31 11:14:43;;;;;;;0.93;0.90;;;;;10.70;95206.00;;;;8306545;28;20286;-72
2023/10/31 11:18:47;;;;;;;2.08;1.00;;;;;10.60;95214.00;;;;8303930;28;20315;-72
2023/10/31 11:22:57;;;;;;;2.03;1.42;;;;;10.70;95203.00;;;;8303445;28;20284;-72
2023/10/31 11:27:03;;;;;;;2.05;1.10;;;;;10.80;95202.00;;;;8303921;28;20244;-71
2023/10/31 11:31:09;;;;;;;0.98;0.98;;;;;11.00;95209.00;;;;8303054;28;20195;-75
2023/10/31 11:35:13;;;;;;;1.58;1.13;;;;;11.20;95206.00;;;;8302825;28;20197;-71
2023/10/31 11:39:21;;;;;;;1.08;1.00;;;;;11.60;95218.00;;;;8302329;28;20222;-72
2023/10/31 11:43:24;;;;;;;1.52;1.33;;;;;11.90;95227.00;;;;8303026;28;20297;-72
2023/10/31 11:47:27;;;;;;;5.50;1.40;;;;;12.20;95234.00;;;;8303003;28;20198;-73
2023/10/31 11:51:31;;;;;;;1.10;1.10;;;;;12.40;95227.00;;;;8302471;28;20204;-74
2023/10/31 11:55:37;;;;;;;3.13;1.30;;;;;12.40;95232.00;;;;8302846;28;20651;-74
2023/10/31 11:59:41;;;;;;;1.40;1.30;;;;;12.50;95229.00;;;;8301820;28;20224;-74
2023/10/31 12:03:47;;;;;;;1.42;1.20;;;;;12.60;95220.00;;;;8302631;28;20236;-74
2023/10/31 12:07:50;;;;;;;1.38;1.30;;;;;12.60;95210.00;;;;8301416;28;20731;-74
2023/10/31 12:11:55;;;;;;;2.17;1.45;;;;;12.70;95216.00;;;;8302023;28;20679;-74
2023/10/31 12:16:00;;;;;;;2.38;1.25;;;;;12.70;95201.00;;;;8302131;28;20288;-74
2023/10/31 12:20:08;;;;;;;2.47;1.10;;;;;12.70;95197.00;;;;8302893;28;20655;-74
2023/10/31 12:24:12;;;;;;;1.10;1.10;;;;;12.70;95198.00;;;;8301435;28;20197;-73
2023/10/31 12:28:20;;;;;;;1.52;1.30;;;;;12.80;95196.00;;;;8301571;28;20512;-72
2023/10/31 12:32:24;;;;;;;1.50;1.20;;;;;12.90;95193.00;;;;8299489;28;20236;-72
2023/10/31 12:36:27;;;;;;;1.48;1.38;;;;;12.90;95198.00;;;;8301293;28;20197;-73
2023/10/31 12:40:30;;;;;;;1.40;1.30;;;;;13.00;95203.00;;;;8300138;28;20330;-72
2023/10/31 12:44:36;;;;;;;1.20;1.10;;;;;13.10;95211.00;;;;8301163;28;20198;-73
2023/10/31 12:48:39;;;;;;;1.30;1.20;;;;;13.20;95217.00;;;;8300355;28;20203;-73
2023/10/31 12:52:50;;;;;;;3.13;1.10;;;;;13.30;95232.00;;;;8301231;28;20309;-74
2023/10/31 12:56:54;;;;;;;2.70;1.50;;;;;13.30;95234.00;;;;8301101;28;20209;-73
2023/10/31 13:00:59;;;;;;;1.33;1.25;;;;;13.30;95246.00;;;;8300122;28;20218;-73
2023/10/31 13:05:09;;;;;;;2.75;1.20;;;;;13.30;95253.00;;;;8299020;28;20245;-73
2023/10/31 13:09:13;;;;;;;0.95;0.95;;;;;13.30;95252.00;;;;8300410;28;20194;-73
2023/10/31 13:13:16;;;;;;;2.30;1.23;;;;;13.30;95260.00;;;;8299712;28;20206;-74
2023/10/31 13:17:20;;;;;;;1.70;1.30;;;;;13.30;95264.00;;;;8300264;28;20547;-72
2023/10/31 13:21:24;;;;;;;2.58;1.30;;;;;13.30;95271.00;;;;8299500;28;20194;-73
2023/10/31 13:25:27;;;;;;;5.03;1.48;;;;;13.30;95271.00;;;;8299277;28;20236;-72
2023/10/31 13:29:30;;;;;;;4.78;1.50;;;;;13.30;95279.00;;;;8298446;28;20204;-72
2023/10/31 13:33:34;;;;;;;1.50;1.40;;;;;13.30;95298.00;;;;8299353;28;20198;-72
2023/10/31 13:37:38;;;;;;;2.13;1.30;;;;;13.40;95291.00;;;;8298571;28;20268;-74
2023/10/31 13:41:41;;;;;;;2.90;1.42;;;;;13.60;95298.00;;;;8298035;28;20202;-73
2023/10/31 13:45:44;;;;;;;1.60;1.50;;;;;13.70;95296.00;;;;8298992;28;20194;-71
2023/10/31 13:49:48;;;;;;;1.27;1.13;;;;;13.70;95301.00;;;;8298755;28;20535;-72
2023/10/31 13:53:51;;;;;;;2.90;1.33;;;;;13.80;95305.00;;;;8298880;28;20201;-72
2023/10/31 13:57:54;;;;;;;2.42;1.10;;;;;13.80;95311.00;;;;8298541;28;20228;-72
2023/10/31 14:01:57;;;;;;;2.10;1.20;;;;;13.70;95309.00;;;;8298994;28;20264;-71
2023/10/31 14:06:02;;;;;;;4.20;1.33;;;;;13.60;95308.00;;;;8299296;28;20542;-72
2023/10/31 14:10:07;;;;;;;6.10;1.45;;;;;13.50;95313.00;;;;8305157;28;20628;-71
2023/10/31 14:14:13;;;;;;;9.20;1.70;;;;;13.40;95320.00;;;;8293835;28;20236;-71
2023/10/31 14:18:16;;;;;;;2.63;1.30;;;;;13.40;95322.00;;;;8298164;28;20658;-71
2023/10/31 14:22:21;;;;;;;4.40;1.63;;;;;13.30;95336.00;;;;8298754;28;20205;-71
2023/10/31 14:26:24;;;;;;;4.20;1.50;;;;;13.20;95337.00;;;;8298582;28;20288;-71
2023/10/31 14:30:27;;;;;;;2.47;1.02;;;;;13.20;95332.00;;;;8298271;28;20226;-70
2023/10/31 14:34:31;;;;;;;6.50;1.42;;;;;13.20;95336.00;;;;8297876;28;20233;-71
2023/10/31 14:38:35;;;;;;;2.90;1.30;;;;;13.20;95337.00;;;;8298787;28;20616;-70
2023/10/31 14:42:38;;;;;;;3.22;1.20;;;;;13.20;95338.00;;;;8297663;28;20193;-72
2023/10/31 14:46:42;;;;;;;3.28;1.35;;;;;13.20;95344.00;;;;8299003;28;20555;-72
2023/10/31 14:50:45;;;;;;;4.80;1.35;;;;;13.20;95349.00;;;;8300164;28;20204;-72
2023/10/31 14:54:49;;;;;;;4.05;1.40;;;;;13.20;95349.00;;;;8305022;28;20233;-72
2023/10/31 14:58:53;;;;;;;4.80;1.08;;;;;13.20;95355.00;;;;8301797;28;20312;-70
2023/10/31 15:02:56;;;;;;;1.20;1.20;;;;;13.20;95364.00;;;;8301240;28;20264;-71
2023/10/31 15:07:00;;;;;;;6.82;1.30;;;;;13.20;95373.00;;;;8303734;28;20555;-73
2023/10/31 15:11:04;;;;;;;8.23;1.75;;;;;13.20;95371.00;;;;8303669;28;20194;-73
2023/10/31 15:15:08;;;;;;;3.95;1.42;;;;;13.10;95371.00;;;;8304244;28;20205;-73
2023/10/31 15:19:11;;;;;;;4.82;1.35;;;;;13.10;95378.00;;;;8303168;28;20234;-72
2023/10/31 15:23:14;;;;;;;1.77;1.67;;;;;13.10;95388.00;;;;8303791;28;20198;-73
2023/10/31 15:27:19;;;;;;;1.92;1.60;;;;;13.10;95391.00;;;;8303146;28;20194;-73
2023/10/31 15:31:22;;;;;;;8.60;2.08;;;;;13.00;95391.00;;;;8301214;28;20234;-70
2023/10/31 15:35:26;;;;;;;4.65;1.73;;;;;13.00;95390.00;;;;8301236;28;20244;-69
2023/10/31 15:39:29;;;;;;;2.58;2.00;;;;;13.00;95397.00;;;;8301688;28;20217;-69
2023/10/31 15:43:33;;;;;;;2.40;1.75;;;;;12.90;95399.00;;;;8300825;28;20228;-70
2023/10/31 15:47:36;;;;;;;3.25;2.15;;;;;12.80;95408.00;;;;8301739;28;20206;-70
2023/10/31 15:51:41;;;;;;;3.80;2.13;;;;;12.70;95408.00;;;;8301332;28;20202;-69
2023/10/31 15:55:45;;;;;;;23.25;14.80;;;;;12.40;95417.00;;;;8301593;28;20512;-69
2023/10/31 15:59:49;;;;;;;3.58;2.47;;;;;12.20;95420.00;;;;8300336;28;20226;-69
2023/10/31 16:03:52;;;;;;;6.55;2.97;;;;;12.00;95424.00;;;;8302280;28;20233;-69
2023/10/31 16:07:56;;;;;;;15.10;10.90;;;;;11.80;95429.00;;;;8301302;28;20200;-68
2023/10/31 16:11:59;;;;;;;6.75;2.40;;;;;11.70;95434.00;;;;8302624;28;20285;-69
2023/10/31 16:16:05;;;;;;;4.57;2.00;;;;;11.50;95431.00;;;;8301682;28;20231;-69
2023/10/31 16:20:08;;;;;;;3.72;2.08;;;;;11.40;95437.00;;;;8301232;28;20252;-68
2023/10/31 16:24:11;;;;;;;4.85;2.08;;;;;11.40;95450.00;;;;8301925;28;20200;-69
2023/10/31 16:28:15;;;;;;;3.75;2.33;;;;;11.40;95452.00;;;;8300615;28;20229;-69
2023/10/31 16:32:19;;;;;;;8.02;2.28;;;;;11.40;95460.00;;;;8300756;28;20279;-69
2023/10/31 16:36:22;;;;;;;5.22;2.15;;;;;11.40;95468.00;;;;8301546;28;20666;-69
2023/10/31 16:40:26;;;;;;;10.63;4.65;;;;;11.40;95473.00;;;;8300606;28;20261;-69
2023/10/31 16:44:29;;;;;;;6.75;5.05;;;;;11.30;95481.00;;;;8300755;28;20194;-69
2023/10/31 16:48:34;;;;;;;7.18;3.47;;;;;11.20;95486.00;;;;8300282;28;20213;-69
2023/10/31 16:52:37;;;;;;;7.63;3.40;;;;;11.10;95489.00;;;;8301047;28;20224;-69
2023/10/31 16:56:40;;;;;;;7.32;2.83;;;;;10.90;95491.00;;;;8301192;28;20676;-69
2023/10/31 17:00:43;;;;;;;6.57;2.78;;;;;10.80;95499.00;;;;8299104;28;20610;-69
2023/10/31 17:04:48;;;;;;;8.02;3.65;;;;;10.80;95505.00;;;;8300037;28;20231;-69
2023/10/31 17:08:51;;;;;;;5.55;2.95;;;;;10.80;95517.00;;;;8300095;28;20241;-68
2023/10/31 17:12:54;;;;;;;7.50;3.00;;;;;10.70;95515.00;;;;8298719;28;20252;-68
2023/10/31 17:16:57;;;;;;;5.10;3.20;;;;;10.70;95517.00;;;;8299050;28;20277;-68
2023/10/31 17:21:02;;;;;;;4.75;2.90;;;;;10.60;95528.00;;;;8299634;28;20230;-69
2023/10/31 17:25:05;;;;;;;7.00;3.17;;;;;10.60;95530.00;;;;8299808;28;20202;-69
2023/10/31 17:29:09;;;;;;;4.15;3.53;;;;;10.60;95527.00;;;;8299521;28;20200;-68
2023/10/31 17:33:13;;;;;;;5.93;3.90;;;;;10.60;95540.00;;;;8299550;28;20240;-69
2023/10/31 17:37:18;;;;;;;19.25;15.70;;;;;10.60;95538.00;;;;8299419;28;20198;-69
2023/10/31 17:41:21;;;;;;;9.73;6.30;;;;;10.70;95558.00;;;;8299420;28;20308;-68
2023/10/31 17:45:25;;;;;;;6.15;3.50;;;;;10.80;95554.00;;;;8298627;28;20195;-68
2023/10/31 17:49:28;;;;;;;6.50;2.50;;;;;10.80;95561.00;;;;8299028;28;20314;-68
2023/10/31 17:53:32;;;;;;;8.43;3.00;;;;;10.90;95562.00;;;;8298971;28;20619;-68
2023/10/31 17:57:36;;;;;;;6.20;3.00;;;;;10.90;95580.00;;;;8299321;28;20213;-69
2023/10/31 18:01:39;;;;;;;7.63;3.00;;;;;10.80;95575.00;;;;8299052;28;20253;-68
2023/10/31 18:05:42;;;;;;;11.15;3.20;;;;;10.70;95581.00;;;;8299500;28;20223;-68
2023/10/31 18:09:47;;;;;;;4.35;2.38;;;;;10.60;95580.00;;;;8298440;28;20239;-68
2023/10/31 18:13:50;;;;;;;5.15;2.45;;;;;10.40;95587.00;;;;8299442;28;20277;-68
2023/10/31 18:17:54;;;;;;;7.55;3.65;;;;;10.30;95585.00;;;;8298508;28;20201;-68
2023/10/31 18:21:59;;;;;;;4.30;3.03;;;;;10.20;95589.00;;;;8298668;28;20317;-68
2023/10/31 18:26:04;;;;;;;10.15;2.78;;;;;10.10;95601.00;;;;8302953;28;20198;-68
2023/10/31 18:30:09;;;;;;;2.83;2.50;;;;;10.10;95612.00;;;;8304792;28;20205;-68
2023/10/31 18:34:12;;;;;;;7.28;3.10;;;;;10.10;95611.00;;;;8305339;28;20645;-68
2023/10/31 18:38:15;;;;;;;8.35;3.80;;;;;10.20;95615.00;;;;8304903;28;20241;-68
2023/10/31 18:42:19;;;;;;;6.55;3.10;;;;;10.30;95619.00;;;;8305080;28;20404;-68
2023/10/31 18:46:25;;;;;;;6.63;3.28;;;;;10.40;95633.00;;;;8304697;28;20495;-68
2023/10/31 18:50:28;;;;;;;4.18;3.10;;;;;10.50;95630.00;;;;8304489;28;20226;-68
2023/10/31 18:54:31;;;;;;;7.07;3.28;;;;;10.50;95635.00;;;;8305832;28;20631;-68
2023/10/31 18:58:36;;;;;;;6.85;3.33;;;;;10.60;95626.00;;;;8303782;28;20199;-68
2023/10/31 19:02:39;;;;;;;5.28;3.38;;;;;10.60;95640.00;;;;8303952;28;20311;-68
2023/10/31 19:06:42;;;;;;;7.40;3.10;;;;;10.70;95633.00;;;;8304187;28;20200;-68
2023/10/31 19:10:47;;;;;;;4.85;2.78;;;;;10.80;95633.00;;;;8303597;28;20201;-68
2023/10/31 19:14:52;;;;;;;3.10;2.80;;;;;10.80;95636.00;;;;8303958;28;20273;-68
2023/10/31 19:18:55;;;;;;;6.25;3.05;;;;;10.90;95648.00;;;;8304176;28;20240;-68
2023/10/31 19:22:59;;;;;;;5.30;3.00;;;;;10.90;95645.00;;;;8303343;28;20225;-68
2023/10/31 19:27:02;;;;;;;2.90;2.70;;;;;11.00;95651.00;;;;8303736;28;20615;-68
2023/10/31 19:31:07;;;;;;;3.05;2.45;;;;;11.00;95651.00;;;;8303558;28;20582;-68
2023/10/31 19:35:13;;;;;;;4.75;2.90;;;;;11.10;95654.00;;;;8302898;28;20230;-68
2023/10/31 19:39:16;;;;;;;6.32;2.85;;;;;11.10;95664.00;;;;8302186;28;20195;-68
2023/10/31 19:43:19;;;;;;;2.40;2.20;;;;;11.20;95671.00;;;;8302324;28;20255;-68
2023/10/31 19:47:24;;;;;;;15.50;4.20;;;;;11.20;95671.00;;;;8302703;28;20197;-68
2023/10/31 19:51:27;;;;;;;2.88;1.80;;;;;11.20;95676.00;;;;8303068;28;20190;-68
2023/10/31 19:55:30;;;;;;;5.70;2.08;;;;;11.10;95675.00;;;;8302638;28;20237;-68
2023/10/31 19:59:33;;;;;;;1.90;1.58;;;;;11.10;95678.00;;;;8302587;28;20237;-68
2023/10/31 20:03:38;;;;;;;3.72;1.90;;;;;11.10;95686.00;;;;8303006;28;20225;-68
2023/10/31 20:07:41;;;;;;;4.85;2.00;;;;;11.00;95693.00;;;;8300349;28;20197;-68
2023/10/31 20:11:44;;;;;;;2.92;1.60;;;;;10.90;95698.00;;;;8297176;28;20254;-68
2023/10/31 20:15:49;;;;;;;3.72;1.80;;;;;10.90;95700.00;;;;8301885;28;20193;-68
2023/10/31 20:19:54;;;;;;;3.28;2.10;;;;;10.90;95705.00;;;;8301433;28;20198;-68
2023/10/31 20:23:57;;;;;;;7.05;1.90;;;;;10.80;95705.00;;;;8302396;28;20225;-70